sensor_id;sensor_type;location;lat;lon;timestamp;temperature;humidity
23609;DHT22;11982;50.810;4.442;2022-12-18T00:01:29;-4.60;99.90
23609;DHT22;11982;50.810;4.442;2022-12-18T00:03:57;-4.70;99.90
23609;DHT22;11982;50.810;4.442;2022-12-18T00:06:24;-4.80;99.90
23609;DHT22;11982;50.810;4.442;2022-12-18T00:08:50;-4.90;99.90
23609;DHT22;11982;50.810;4.442;2022-12-18T00:11:21;-4.90;99.90
23609;DHT22;11982;50.810;4.442;2022-12-18T00:13:47;-4.90;99.90
23609;DHT22;11982;50.810;4.442;2022-12-18T00:16:20;-4.80;99.90
23609;DHT22;11982;50.810;4.442;2022-12-18T00:18:50;-4.70;99.90
23609;DHT22;11982;50.810;4.442;2022-12-18T00:21:16;-4.70;99.90
23609;DHT22;11982;50.810;4.442;2022-12-18T00:23:43;-4.70;99.90
23609;DHT22;11982;50.810;4.442;2022-12-18T00:26:15;-4.60;99.90
23609;DHT22;11982;50.810;4.442;2022-12-18T00:28:42;-4.70;99.90
23609;DHT22;11982;50.810;4.442;2022-12-18T00:31:14;-4.80;99.90
23609;DHT22;11982;50.810;4.442;2022-12-18T00:33:40;-4.90;99.90
23609;DHT22;11982;50.810;4.442;2022-12-18T00:36:11;-5.00;99.90
23609;DHT22;11982;50.810;4.442;2022-12-18T00:38:38;-5.00;99.90
23609;DHT22;11982;50.810;4.442;2022-12-18T00:41:04;-5.00;99.90
23609;DHT22;11982;50.810;4.442;2022-12-18T00:43:30;-4.90;99.90
23609;DHT22;11982;50.810;4.442;2022-12-18T00:45:56;-4.90;99.90
23609;DHT22;11982;50.810;4.442;2022-12-18T00:48:22;-5.00;99.90
23609;DHT22;11982;50.810;4.442;2022-12-18T00:50:49;-5.00;99.90
23609;DHT22;11982;50.810;4.442;2022-12-18T00:53:15;-5.00;99.90
23609;DHT22;11982;50.810;4.442;2022-12-18T00:55:41;-4.90;99.90
23609;DHT22;11982;50.810;4.442;2022-12-18T00:58:08;-4.90;99.90
23609;DHT22;11982;50.810;4.442;2022-12-18T01:00:34;-4.80;99.90
23609;DHT22;11982;50.810;4.442;2022-12-18T01:03:00;-4.70;99.90
23609;DHT22;11982;50.810;4.442;2022-12-18T01:05:26;-4.70;99.90
23609;DHT22;11982;50.810;4.442;2022-12-18T01:07:52;-4.50;99.90
23609;DHT22;11982;50.810;4.442;2022-12-18T01:10:18;-4.50;99.90
23609;DHT22;11982;50.810;4.442;2022-12-18T01:12:44;-4.50;99.90
23609;DHT22;11982;50.810;4.442;2022-12-18T01:15:11;-4.50;99.90
23609;DHT22;11982;50.810;4.442;2022-12-18T01:17:37;-4.50;99.90
23609;DHT22;11982;50.810;4.442;2022-12-18T01:20:03;-4.40;99.90
23609;DHT22;11982;50.810;4.442;2022-12-18T01:22:29;-4.30;99.90
23609;DHT22;11982;50.810;4.442;2022-12-18T01:24:55;-4.30;99.90
23609;DHT22;11982;50.810;4.442;2022-12-18T01:27:20;-4.40;99.90
23609;DHT22;11982;50.810;4.442;2022-12-18T01:29:46;-4.50;99.90
23609;DHT22;11982;50.810;4.442;2022-12-18T01:32:12;-4.50;99.90
23609;DHT22;11982;50.810;4.442;2022-12-18T01:34:38;-4.50;99.90
23609;DHT22;11982;50.810;4.442;2022-12-18T01:37:04;-4.50;99.90
23609;DHT22;11982;50.810;4.442;2022-12-18T01:39:31;-4.50;99.90
23609;DHT22;11982;50.810;4.442;2022-12-18T01:42:02;-4.40;99.90
23609;DHT22;11982;50.810;4.442;2022-12-18T01:44:54;-4.40;99.90
23609;DHT22;11982;50.810;4.442;2022-12-18T01:49:53;-4.40;99.90
23609;DHT22;11982;50.810;4.442;2022-12-18T01:52:20;-4.50;99.90
23609;DHT22;11982;50.810;4.442;2022-12-18T01:54:48;-4.60;99.90
23609;DHT22;11982;50.810;4.442;2022-12-18T01:57:14;-4.70;99.90
23609;DHT22;11982;50.810;4.442;2022-12-18T01:59:41;-4.80;99.90
23609;DHT22;11982;50.810;4.442;2022-12-18T02:02:08;-4.80;99.90
23609;DHT22;11982;50.810;4.442;2022-12-18T02:04:34;-4.80;99.90
23609;DHT22;11982;50.810;4.442;2022-12-18T02:07:07;-4.70;99.90
23609;DHT22;11982;50.810;4.442;2022-12-18T02:10:07;-4.70;99.90
23609;DHT22;11982;50.810;4.442;2022-12-18T02:12:45;-4.60;99.90
23609;DHT22;11982;50.810;4.442;2022-12-18T02:15:22;-4.80;99.90
23609;DHT22;11982;50.810;4.442;2022-12-18T02:17:54;-5.10;99.90
23609;DHT22;11982;50.810;4.442;2022-12-18T02:28:24;-5.30;99.90
23609;DHT22;11982;50.810;4.442;2022-12-18T02:30:53;-5.30;99.90
23609;DHT22;11982;50.810;4.442;2022-12-18T02:33:22;-5.40;99.90
23609;DHT22;11982;50.810;4.442;2022-12-18T02:35:50;-5.60;99.90
23609;DHT22;11982;50.810;4.442;2022-12-18T02:38:17;-5.70;99.90
23609;DHT22;11982;50.810;4.442;2022-12-18T02:40:44;-5.80;99.90
23609;DHT22;11982;50.810;4.442;2022-12-18T02:43:13;-5.70;99.90
23609;DHT22;11982;50.810;4.442;2022-12-18T02:45:57;-5.80;99.90
23609;DHT22;11982;50.810;4.442;2022-12-18T02:48:27;-5.80;99.90
23609;DHT22;11982;50.810;4.442;2022-12-18T02:51:11;-5.70;99.90
23609;DHT22;11982;50.810;4.442;2022-12-18T02:53:53;-5.80;99.90
23609;DHT22;11982;50.810;4.442;2022-12-18T02:56:28;-5.80;99.90
23609;DHT22;11982;50.810;4.442;2022-12-18T02:59:02;-5.90;99.90
23609;DHT22;11982;50.810;4.442;2022-12-18T03:01:56;-5.90;99.90
23609;DHT22;11982;50.810;4.442;2022-12-18T03:04:27;-5.90;99.90
23609;DHT22;11982;50.810;4.442;2022-12-18T03:07:02;-6.00;99.90
23609;DHT22;11982;50.810;4.442;2022-12-18T03:09:36;-6.00;99.90
23609;DHT22;11982;50.810;4.442;2022-12-18T03:12:27;-5.90;99.90
23609;DHT22;11982;50.810;4.442;2022-12-18T03:17:27;-6.10;99.90
23609;DHT22;11982;50.810;4.442;2022-12-18T03:19:55;-6.10;99.90
23609;DHT22;11982;50.810;4.442;2022-12-18T03:22:24;-6.20;99.90
23609;DHT22;11982;50.810;4.442;2022-12-18T03:24:53;-6.20;99.90
23609;DHT22;11982;50.810;4.442;2022-12-18T03:27:20;-6.20;99.90
23609;DHT22;11982;50.810;4.442;2022-12-18T03:29:52;-6.00;99.90
23609;DHT22;11982;50.810;4.442;2022-12-18T03:32:27;-6.00;99.90
23609;DHT22;11982;50.810;4.442;2022-12-18T03:34:56;-6.00;99.90
23609;DHT22;11982;50.810;4.442;2022-12-18T03:37:23;-5.80;99.90
23609;DHT22;11982;50.810;4.442;2022-12-18T03:39:49;-5.80;99.90
23609;DHT22;11982;50.810;4.442;2022-12-18T03:42:15;-5.70;99.90
23609;DHT22;11982;50.810;4.442;2022-12-18T03:45:02;-5.80;99.90
23609;DHT22;11982;50.810;4.442;2022-12-18T03:56:01;-6.00;99.90
23609;DHT22;11982;50.810;4.442;2022-12-18T03:58:28;-6.10;99.90
23609;DHT22;11982;50.810;4.442;2022-12-18T04:00:56;-6.20;99.90
23609;DHT22;11982;50.810;4.442;2022-12-18T04:03:25;-6.30;99.90
23609;DHT22;11982;50.810;4.442;2022-12-18T04:05:54;-6.30;99.90
23609;DHT22;11982;50.810;4.442;2022-12-18T04:08:20;-6.30;99.90
23609;DHT22;11982;50.810;4.442;2022-12-18T04:10:46;-6.40;99.90
23609;DHT22;11982;50.810;4.442;2022-12-18T04:13:12;-6.40;99.90
23609;DHT22;11982;50.810;4.442;2022-12-18T04:15:46;-6.30;99.90
23609;DHT22;11982;50.810;4.442;2022-12-18T04:18:12;-6.30;99.90
23609;DHT22;11982;50.810;4.442;2022-12-18T04:20:37;-6.30;99.90
23609;DHT22;11982;50.810;4.442;2022-12-18T04:23:03;-6.30;99.90
23609;DHT22;11982;50.810;4.442;2022-12-18T04:25:28;-6.30;99.90
23609;DHT22;11982;50.810;4.442;2022-12-18T04:27:54;-6.40;99.90
23609;DHT22;11982;50.810;4.442;2022-12-18T04:30:20;-6.50;99.90
23609;DHT22;11982;50.810;4.442;2022-12-18T04:32:45;-6.40;99.90
23609;DHT22;11982;50.810;4.442;2022-12-18T04:35:11;-6.40;99.90
23609;DHT22;11982;50.810;4.442;2022-12-18T04:37:37;-6.40;99.90
23609;DHT22;11982;50.810;4.442;2022-12-18T04:40:04;-6.40;99.90
23609;DHT22;11982;50.810;4.442;2022-12-18T04:42:30;-6.50;99.90
23609;DHT22;11982;50.810;4.442;2022-12-18T04:44:55;-6.50;99.90
23609;DHT22;11982;50.810;4.442;2022-12-18T04:47:21;-6.50;99.90
23609;DHT22;11982;50.810;4.442;2022-12-18T04:49:46;-6.50;99.90
23609;DHT22;11982;50.810;4.442;2022-12-18T04:52:12;-6.40;99.90
23609;DHT22;11982;50.810;4.442;2022-12-18T04:54:38;-6.30;99.90
23609;DHT22;11982;50.810;4.442;2022-12-18T04:57:03;-6.30;99.90
23609;DHT22;11982;50.810;4.442;2022-12-18T04:59:29;-6.50;99.90
23609;DHT22;11982;50.810;4.442;2022-12-18T05:01:54;-6.50;99.90
23609;DHT22;11982;50.810;4.442;2022-12-18T05:04:20;-6.50;99.90
23609;DHT22;11982;50.810;4.442;2022-12-18T05:06:46;-6.50;99.90
23609;DHT22;11982;50.810;4.442;2022-12-18T05:09:11;-6.50;99.90
23609;DHT22;11982;50.810;4.442;2022-12-18T05:11:37;-6.50;99.90
23609;DHT22;11982;50.810;4.442;2022-12-18T05:14:03;-6.50;99.90
23609;DHT22;11982;50.810;4.442;2022-12-18T05:16:28;-6.60;99.90
23609;DHT22;11982;50.810;4.442;2022-12-18T05:18:54;-6.50;99.90
23609;DHT22;11982;50.810;4.442;2022-12-18T05:21:19;-6.60;99.90
23609;DHT22;11982;50.810;4.442;2022-12-18T05:23:45;-6.50;99.90
23609;DHT22;11982;50.810;4.442;2022-12-18T05:26:18;-6.60;99.90
23609;DHT22;11982;50.810;4.442;2022-12-18T05:28:45;-6.60;99.90
23609;DHT22;11982;50.810;4.442;2022-12-18T05:31:11;-6.60;99.90
23609;DHT22;11982;50.810;4.442;2022-12-18T05:33:37;-6.50;99.90
23609;DHT22;11982;50.810;4.442;2022-12-18T05:36:05;-6.60;99.90
23609;DHT22;11982;50.810;4.442;2022-12-18T05:38:33;-6.50;99.90
23609;DHT22;11982;50.810;4.442;2022-12-18T05:40:59;-6.50;99.90
23609;DHT22;11982;50.810;4.442;2022-12-18T05:43:26;-6.50;99.90
23609;DHT22;11982;50.810;4.442;2022-12-18T05:45:52;-6.60;99.90
23609;DHT22;11982;50.810;4.442;2022-12-18T05:48:19;-6.60;99.90
23609;DHT22;11982;50.810;4.442;2022-12-18T05:50:46;-6.50;99.90
23609;DHT22;11982;50.810;4.442;2022-12-18T05:53:14;-6.50;99.90
23609;DHT22;11982;50.810;4.442;2022-12-18T05:55:41;-6.50;99.90
23609;DHT22;11982;50.810;4.442;2022-12-18T05:58:08;-6.40;99.90
23609;DHT22;11982;50.810;4.442;2022-12-18T06:00:36;-6.30;99.90
23609;DHT22;11982;50.810;4.442;2022-12-18T06:03:05;-6.30;99.90
23609;DHT22;11982;50.810;4.442;2022-12-18T06:05:38;-6.10;99.90
23609;DHT22;11982;50.810;4.442;2022-12-18T06:08:04;-6.00;99.90
23609;DHT22;11982;50.810;4.442;2022-12-18T06:10:30;-5.80;99.90
23609;DHT22;11982;50.810;4.442;2022-12-18T06:12:56;-5.70;99.90
23609;DHT22;11982;50.810;4.442;2022-12-18T06:15:21;-5.60;99.90
23609;DHT22;11982;50.810;4.442;2022-12-18T06:17:47;-5.40;99.90
23609;DHT22;11982;50.810;4.442;2022-12-18T06:20:12;-5.40;99.90
23609;DHT22;11982;50.810;4.442;2022-12-18T06:22:38;-5.20;99.90
23609;DHT22;11982;50.810;4.442;2022-12-18T06:25:04;-5.10;99.90
23609;DHT22;11982;50.810;4.442;2022-12-18T06:27:31;-5.00;99.90
23609;DHT22;11982;50.810;4.442;2022-12-18T06:29:59;-4.90;99.90
23609;DHT22;11982;50.810;4.442;2022-12-18T06:32:24;-4.90;99.90
23609;DHT22;11982;50.810;4.442;2022-12-18T06:34:50;-4.70;99.90
23609;DHT22;11982;50.810;4.442;2022-12-18T06:37:16;-4.90;99.90
23609;DHT22;11982;50.810;4.442;2022-12-18T06:39:42;-4.90;99.90
23609;DHT22;11982;50.810;4.442;2022-12-18T06:42:07;-4.90;99.90
23609;DHT22;11982;50.810;4.442;2022-12-18T06:44:33;-5.00;99.90
23609;DHT22;11982;50.810;4.442;2022-12-18T06:46:58;-5.00;99.90
23609;DHT22;11982;50.810;4.442;2022-12-18T06:49:24;-5.00;99.90
23609;DHT22;11982;50.810;4.442;2022-12-18T06:51:50;-5.00;99.90
23609;DHT22;11982;50.810;4.442;2022-12-18T06:54:16;-4.90;99.90
23609;DHT22;11982;50.810;4.442;2022-12-18T06:56:41;-4.90;99.90
23609;DHT22;11982;50.810;4.442;2022-12-18T06:59:07;-4.90;99.90
23609;DHT22;11982;50.810;4.442;2022-12-18T07:01:32;-5.00;99.90
23609;DHT22;11982;50.810;4.442;2022-12-18T07:03:58;-5.00;99.90
23609;DHT22;11982;50.810;4.442;2022-12-18T07:06:25;-4.90;99.90
23609;DHT22;11982;50.810;4.442;2022-12-18T07:08:53;-4.90;99.90
23609;DHT22;11982;50.810;4.442;2022-12-18T07:11:19;-4.90;99.90
23609;DHT22;11982;50.810;4.442;2022-12-18T07:13:46;-5.00;99.90
23609;DHT22;11982;50.810;4.442;2022-12-18T07:16:17;-5.00;99.90
23609;DHT22;11982;50.810;4.442;2022-12-18T07:18:43;-4.80;99.90
23609;DHT22;11982;50.810;4.442;2022-12-18T07:21:15;-4.70;99.90
23609;DHT22;11982;50.810;4.442;2022-12-18T07:23:41;-4.60;99.90
23609;DHT22;11982;50.810;4.442;2022-12-18T07:26:10;-4.50;99.90
23609;DHT22;11982;50.810;4.442;2022-12-18T07:28:37;-4.50;99.90
23609;DHT22;11982;50.810;4.442;2022-12-18T07:31:07;-4.50;99.90
23609;DHT22;11982;50.810;4.442;2022-12-18T07:33:34;-4.50;99.90
23609;DHT22;11982;50.810;4.442;2022-12-18T07:36:01;-4.60;99.90
23609;DHT22;11982;50.810;4.442;2022-12-18T07:38:26;-4.70;99.90
23609;DHT22;11982;50.810;4.442;2022-12-18T07:40:52;-4.70;99.90
23609;DHT22;11982;50.810;4.442;2022-12-18T07:43:18;-4.80;99.90
23609;DHT22;11982;50.810;4.442;2022-12-18T07:45:44;-4.80;99.90
23609;DHT22;11982;50.810;4.442;2022-12-18T07:48:10;-4.70;99.90
23609;DHT22;11982;50.810;4.442;2022-12-18T07:50:36;-4.60;99.90
23609;DHT22;11982;50.810;4.442;2022-12-18T07:53:01;-4.60;99.90
23609;DHT22;11982;50.810;4.442;2022-12-18T07:55:30;-4.50;99.90
23609;DHT22;11982;50.810;4.442;2022-12-18T07:57:55;-4.50;99.90
23609;DHT22;11982;50.810;4.442;2022-12-18T08:00:21;-4.40;99.90
23609;DHT22;11982;50.810;4.442;2022-12-18T08:02:47;-4.40;99.90
23609;DHT22;11982;50.810;4.442;2022-12-18T08:05:13;-4.40;99.90
23609;DHT22;11982;50.810;4.442;2022-12-18T08:07:39;-4.40;99.90
23609;DHT22;11982;50.810;4.442;2022-12-18T08:10:05;-4.30;99.90
23609;DHT22;11982;50.810;4.442;2022-12-18T08:12:32;-4.30;99.90
23609;DHT22;11982;50.810;4.442;2022-12-18T08:14:57;-4.20;99.90
23609;DHT22;11982;50.810;4.442;2022-12-18T08:17:23;-4.10;99.90
23609;DHT22;11982;50.810;4.442;2022-12-18T08:19:49;-4.10;99.90
23609;DHT22;11982;50.810;4.442;2022-12-18T08:22:14;-4.10;99.90
23609;DHT22;11982;50.810;4.442;2022-12-18T08:24:40;-4.00;99.90
23609;DHT22;11982;50.810;4.442;2022-12-18T08:27:06;-4.00;99.90
23609;DHT22;11982;50.810;4.442;2022-12-18T08:29:31;-3.90;99.90
23609;DHT22;11982;50.810;4.442;2022-12-18T08:31:57;-3.80;99.90
23609;DHT22;11982;50.810;4.442;2022-12-18T08:34:23;-3.80;99.90
23609;DHT22;11982;50.810;4.442;2022-12-18T08:36:49;-3.70;99.90
23609;DHT22;11982;50.810;4.442;2022-12-18T08:39:14;-3.70;99.90
23609;DHT22;11982;50.810;4.442;2022-12-18T08:41:40;-3.60;99.90
23609;DHT22;11982;50.810;4.442;2022-12-18T08:44:07;-3.60;99.90
23609;DHT22;11982;50.810;4.442;2022-12-18T08:46:51;-3.60;99.90
23609;DHT22;11982;50.810;4.442;2022-12-18T08:49:17;-3.50;99.90
23609;DHT22;11982;50.810;4.442;2022-12-18T08:51:43;-3.40;99.90
23609;DHT22;11982;50.810;4.442;2022-12-18T08:54:11;-3.40;99.90
23609;DHT22;11982;50.810;4.442;2022-12-18T08:56:37;-3.30;99.90
23609;DHT22;11982;50.810;4.442;2022-12-18T08:59:02;-3.10;99.90
23609;DHT22;11982;50.810;4.442;2022-12-18T09:01:29;-3.10;99.90
23609;DHT22;11982;50.810;4.442;2022-12-18T09:03:55;-2.90;99.90
23609;DHT22;11982;50.810;4.442;2022-12-18T09:06:22;-2.80;99.90
23609;DHT22;11982;50.810;4.442;2022-12-18T09:08:48;-2.70;99.90
23609;DHT22;11982;50.810;4.442;2022-12-18T09:11:19;-2.70;99.90
23609;DHT22;11982;50.810;4.442;2022-12-18T09:13:44;-2.60;99.90
23609;DHT22;11982;50.810;4.442;2022-12-18T09:16:10;-2.60;99.90
23609;DHT22;11982;50.810;4.442;2022-12-18T09:18:36;-2.40;99.90
23609;DHT22;11982;50.810;4.442;2022-12-18T09:21:14;-2.30;99.90
23609;DHT22;11982;50.810;4.442;2022-12-18T09:23:40;-2.20;99.90
23609;DHT22;11982;50.810;4.442;2022-12-18T09:26:06;-2.20;99.90
23609;DHT22;11982;50.810;4.442;2022-12-18T09:28:32;-2.20;99.90
23609;DHT22;11982;50.810;4.442;2022-12-18T09:30:58;-2.20;99.90
23609;DHT22;11982;50.810;4.442;2022-12-18T09:33:24;-2.20;99.90
23609;DHT22;11982;50.810;4.442;2022-12-18T09:35:49;-2.20;99.90
23609;DHT22;11982;50.810;4.442;2022-12-18T09:38:18;-2.10;99.90
23609;DHT22;11982;50.810;4.442;2022-12-18T09:40:50;-1.90;99.90
23609;DHT22;11982;50.810;4.442;2022-12-18T09:43:40;-2.00;99.90
23609;DHT22;11982;50.810;4.442;2022-12-18T09:46:11;-1.90;99.90
23609;DHT22;11982;50.810;4.442;2022-12-18T09:48:42;-1.70;99.90
23609;DHT22;11982;50.810;4.442;2022-12-18T09:51:15;-1.80;99.90
23609;DHT22;11982;50.810;4.442;2022-12-18T09:53:47;-1.60;99.90
23609;DHT22;11982;50.810;4.442;2022-12-18T09:56:20;-1.60;99.90
23609;DHT22;11982;50.810;4.442;2022-12-18T09:58:57;-1.50;99.90
23609;DHT22;11982;50.810;4.442;2022-12-18T10:01:24;-1.40;99.90
23609;DHT22;11982;50.810;4.442;2022-12-18T10:03:50;-1.40;99.90
23609;DHT22;11982;50.810;4.442;2022-12-18T10:09:27;-1.20;99.90
23609;DHT22;11982;50.810;4.442;2022-12-18T10:14:25;-1.10;99.90
23609;DHT22;11982;50.810;4.442;2022-12-18T10:22:39;-0.90;99.90
23609;DHT22;11982;50.810;4.442;2022-12-18T10:25:28;-0.90;99.90
23609;DHT22;11982;50.810;4.442;2022-12-18T10:28:00;-0.90;99.90
23609;DHT22;11982;50.810;4.442;2022-12-18T10:30:33;-0.80;99.90
23609;DHT22;11982;50.810;4.442;2022-12-18T10:33:02;-0.80;99.90
23609;DHT22;11982;50.810;4.442;2022-12-18T10:35:28;-0.80;99.90
23609;DHT22;11982;50.810;4.442;2022-12-18T10:38:06;-0.70;99.90
23609;DHT22;11982;50.810;4.442;2022-12-18T10:40:32;-0.50;99.90
23609;DHT22;11982;50.810;4.442;2022-12-18T10:43:11;-0.50;99.90
23609;DHT22;11982;50.810;4.442;2022-12-18T10:45:37;-0.30;99.90
23609;DHT22;11982;50.810;4.442;2022-12-18T10:48:03;-0.40;99.90
23609;DHT22;11982;50.810;4.442;2022-12-18T10:50:36;-0.20;99.90
23609;DHT22;11982;50.810;4.442;2022-12-18T10:53:04;-0.10;99.90
23609;DHT22;11982;50.810;4.442;2022-12-18T10:55:38;0.10;99.90
23609;DHT22;11982;50.810;4.442;2022-12-18T10:58:29;0.00;99.90
23609;DHT22;11982;50.810;4.442;2022-12-18T11:06:09;0.30;99.90
23609;DHT22;11982;50.810;4.442;2022-12-18T11:08:35;0.40;99.90
23609;DHT22;11982;50.810;4.442;2022-12-18T11:11:01;0.40;99.90
23609;DHT22;11982;50.810;4.442;2022-12-18T11:13:28;0.70;99.90
23609;DHT22;11982;50.810;4.442;2022-12-18T11:15:55;0.60;99.90
23609;DHT22;11982;50.810;4.442;2022-12-18T11:18:34;0.90;99.90
23609;DHT22;11982;50.810;4.442;2022-12-18T11:21:05;0.60;99.90
23609;DHT22;11982;50.810;4.442;2022-12-18T11:23:31;0.60;99.90
23609;DHT22;11982;50.810;4.442;2022-12-18T11:26:04;0.70;99.90
23609;DHT22;11982;50.810;4.442;2022-12-18T11:28:47;0.80;99.90
23609;DHT22;11982;50.810;4.442;2022-12-18T11:31:24;0.90;99.90
23609;DHT22;11982;50.810;4.442;2022-12-18T11:34:10;1.00;99.90
23609;DHT22;11982;50.810;4.442;2022-12-18T11:36:43;1.10;99.90
23609;DHT22;11982;50.810;4.442;2022-12-18T11:39:24;0.90;99.90
23609;DHT22;11982;50.810;4.442;2022-12-18T11:44:46;1.10;99.90
23609;DHT22;11982;50.810;4.442;2022-12-18T11:50:18;1.20;99.90
23609;DHT22;11982;50.810;4.442;2022-12-18T11:52:44;1.10;99.90
23609;DHT22;11982;50.810;4.442;2022-12-18T11:55:13;1.00;99.90
23609;DHT22;11982;50.810;4.442;2022-12-18T12:00:18;1.40;99.90
23609;DHT22;11982;50.810;4.442;2022-12-18T12:09:31;1.90;99.90
23609;DHT22;11982;50.810;4.442;2022-12-18T12:17:11;2.10;99.90
23609;DHT22;11982;50.810;4.442;2022-12-18T12:19:53;2.00;99.90
23609;DHT22;11982;50.810;4.442;2022-12-18T12:23:01;2.20;99.90
23609;DHT22;11982;50.810;4.442;2022-12-18T12:26:02;2.00;99.90
23609;DHT22;11982;50.810;4.442;2022-12-18T12:40:32;2.10;99.90
23609;DHT22;11982;50.810;4.442;2022-12-18T12:43:10;2.10;99.90
23609;DHT22;11982;50.810;4.442;2022-12-18T12:48:35;1.90;99.90
23609;DHT22;11982;50.810;4.442;2022-12-18T12:51:14;1.80;99.90
23609;DHT22;11982;50.810;4.442;2022-12-18T12:53:42;2.00;99.90
23609;DHT22;11982;50.810;4.442;2022-12-18T12:56:11;2.10;99.90
23609;DHT22;11982;50.810;4.442;2022-12-18T12:58:58;2.10;99.90
23609;DHT22;11982;50.810;4.442;2022-12-18T13:01:39;2.10;99.90
23609;DHT22;11982;50.810;4.442;2022-12-18T13:04:18;2.10;99.90
23609;DHT22;11982;50.810;4.442;2022-12-18T13:07:19;2.10;99.90
23609;DHT22;11982;50.810;4.442;2022-12-18T13:10:26;2.20;99.90
23609;DHT22;11982;50.810;4.442;2022-12-18T13:12:56;2.20;99.90
23609;DHT22;11982;50.810;4.442;2022-12-18T13:15:38;2.30;99.90
23609;DHT22;11982;50.810;4.442;2022-12-18T13:25:56;2.30;99.90
23609;DHT22;11982;50.810;4.442;2022-12-18T13:34:27;1.80;99.90
23609;DHT22;11982;50.810;4.442;2022-12-18T13:39:40;1.90;99.90
23609;DHT22;11982;50.810;4.442;2022-12-18T13:44:39;1.80;99.90
23609;DHT22;11982;50.810;4.442;2022-12-18T13:47:42;1.80;99.90
23609;DHT22;11982;50.810;4.442;2022-12-18T13:50:23;1.70;99.90
23609;DHT22;11982;50.810;4.442;2022-12-18T13:52:50;1.60;99.90
23609;DHT22;11982;50.810;4.442;2022-12-18T13:55:19;1.40;99.90
23609;DHT22;11982;50.810;4.442;2022-12-18T13:57:45;1.40;99.90
23609;DHT22;11982;50.810;4.442;2022-12-18T14:00:28;1.40;99.90
23609;DHT22;11982;50.810;4.442;2022-12-18T14:02:55;1.60;99.90
23609;DHT22;11982;50.810;4.442;2022-12-18T14:05:34;1.50;99.90
23609;DHT22;11982;50.810;4.442;2022-12-18T14:08:11;1.40;99.90
23609;DHT22;11982;50.810;4.442;2022-12-18T14:10:42;1.50;99.90
23609;DHT22;11982;50.810;4.442;2022-12-18T14:13:10;1.30;99.90
23609;DHT22;11982;50.810;4.442;2022-12-18T14:15:42;1.20;99.90
23609;DHT22;11982;50.810;4.442;2022-12-18T14:18:23;1.20;99.90
23609;DHT22;11982;50.810;4.442;2022-12-18T14:20:52;1.30;99.90
23609;DHT22;11982;50.810;4.442;2022-12-18T14:23:47;1.30;99.90
23609;DHT22;11982;50.810;4.442;2022-12-18T14:28:50;1.40;99.90
23609;DHT22;11982;50.810;4.442;2022-12-18T14:31:20;1.30;99.90
23609;DHT22;11982;50.810;4.442;2022-12-18T14:33:46;1.40;99.90
23609;DHT22;11982;50.810;4.442;2022-12-18T14:36:16;1.30;99.90
23609;DHT22;11982;50.810;4.442;2022-12-18T14:38:42;1.30;99.90
23609;DHT22;11982;50.810;4.442;2022-12-18T14:41:13;1.40;99.90
23609;DHT22;11982;50.810;4.442;2022-12-18T14:43:42;1.50;99.90
23609;DHT22;11982;50.810;4.442;2022-12-18T14:46:32;1.50;99.90
23609;DHT22;11982;50.810;4.442;2022-12-18T14:51:59;1.40;99.90
23609;DHT22;11982;50.810;4.442;2022-12-18T14:54:27;1.40;99.90
23609;DHT22;11982;50.810;4.442;2022-12-18T14:59:52;1.50;99.90
23609;DHT22;11982;50.810;4.442;2022-12-18T15:02:19;1.50;99.90
23609;DHT22;11982;50.810;4.442;2022-12-18T15:04:46;1.60;99.90
23609;DHT22;11982;50.810;4.442;2022-12-18T15:09:44;1.50;99.90
23609;DHT22;11982;50.810;4.442;2022-12-18T15:12:42;1.50;99.90
23609;DHT22;11982;50.810;4.442;2022-12-18T15:23:19;1.50;99.90
23609;DHT22;11982;50.810;4.442;2022-12-18T15:25:47;1.60;99.90
23609;DHT22;11982;50.810;4.442;2022-12-18T15:31:28;1.40;99.90
23609;DHT22;11982;50.810;4.442;2022-12-18T15:36:23;1.60;99.90
23609;DHT22;11982;50.810;4.442;2022-12-18T15:38:50;1.60;99.90
23609;DHT22;11982;50.810;4.442;2022-12-18T15:41:18;1.60;99.90
23609;DHT22;11982;50.810;4.442;2022-12-18T15:43:45;1.40;99.90
23609;DHT22;11982;50.810;4.442;2022-12-18T15:46:13;1.30;99.90
23609;DHT22;11982;50.810;4.442;2022-12-18T15:48:43;1.30;99.90
23609;DHT22;11982;50.810;4.442;2022-12-18T15:51:23;1.40;99.90
23609;DHT22;11982;50.810;4.442;2022-12-18T15:53:52;1.30;99.90
23609;DHT22;11982;50.810;4.442;2022-12-18T15:56:20;1.30;99.90
23609;DHT22;11982;50.810;4.442;2022-12-18T15:59:16;1.40;99.90
23609;DHT22;11982;50.810;4.442;2022-12-18T16:01:44;1.30;99.90
23609;DHT22;11982;50.810;4.442;2022-12-18T16:04:14;1.40;99.90
23609;DHT22;11982;50.810;4.442;2022-12-18T16:06:41;1.50;99.90
23609;DHT22;11982;50.810;4.442;2022-12-18T16:09:07;1.70;99.90
23609;DHT22;11982;50.810;4.442;2022-12-18T16:11:35;1.70;99.90
23609;DHT22;11982;50.810;4.442;2022-12-18T16:16:37;1.50;99.90
23609;DHT22;11982;50.810;4.442;2022-12-18T16:19:02;1.60;99.90
23609;DHT22;11982;50.810;4.442;2022-12-18T16:21:28;1.50;99.90
23609;DHT22;11982;50.810;4.442;2022-12-18T16:23:54;1.60;99.90
23609;DHT22;11982;50.810;4.442;2022-12-18T16:26:19;1.60;99.90
23609;DHT22;11982;50.810;4.442;2022-12-18T16:28:45;1.60;99.90
23609;DHT22;11982;50.810;4.442;2022-12-18T16:31:11;1.60;99.90
23609;DHT22;11982;50.810;4.442;2022-12-18T16:33:36;1.70;99.90
23609;DHT22;11982;50.810;4.442;2022-12-18T16:36:02;1.60;99.90
23609;DHT22;11982;50.810;4.442;2022-12-18T16:38:28;1.60;99.90
23609;DHT22;11982;50.810;4.442;2022-12-18T16:40:54;1.60;99.90
23609;DHT22;11982;50.810;4.442;2022-12-18T16:43:37;1.70;99.90
23609;DHT22;11982;50.810;4.442;2022-12-18T16:46:03;1.70;99.90
23609;DHT22;11982;50.810;4.442;2022-12-18T16:48:29;1.90;99.90
23609;DHT22;11982;50.810;4.442;2022-12-18T16:51:03;1.70;99.90
23609;DHT22;11982;50.810;4.442;2022-12-18T16:53:30;1.70;99.90
23609;DHT22;11982;50.810;4.442;2022-12-18T16:55:57;1.80;99.90
23609;DHT22;11982;50.810;4.442;2022-12-18T16:58:22;1.80;99.90
23609;DHT22;11982;50.810;4.442;2022-12-18T17:00:48;1.70;99.90
23609;DHT22;11982;50.810;4.442;2022-12-18T17:03:14;1.80;99.90
23609;DHT22;11982;50.810;4.442;2022-12-18T17:05:40;1.80;99.90
23609;DHT22;11982;50.810;4.442;2022-12-18T17:08:05;1.80;99.90
23609;DHT22;11982;50.810;4.442;2022-12-18T17:10:33;1.80;99.90
23609;DHT22;11982;50.810;4.442;2022-12-18T17:12:59;1.70;99.90
23609;DHT22;11982;50.810;4.442;2022-12-18T17:15:25;1.70;99.90
23609;DHT22;11982;50.810;4.442;2022-12-18T17:17:51;1.70;99.90
23609;DHT22;11982;50.810;4.442;2022-12-18T17:20:16;1.80;99.90
23609;DHT22;11982;50.810;4.442;2022-12-18T17:22:42;1.70;99.90
23609;DHT22;11982;50.810;4.442;2022-12-18T17:25:08;1.70;99.90
23609;DHT22;11982;50.810;4.442;2022-12-18T17:27:34;1.70;99.90
23609;DHT22;11982;50.810;4.442;2022-12-18T17:29:59;1.70;99.90
23609;DHT22;11982;50.810;4.442;2022-12-18T17:32:25;1.70;99.90
23609;DHT22;11982;50.810;4.442;2022-12-18T17:34:50;1.70;99.90
23609;DHT22;11982;50.810;4.442;2022-12-18T17:37:16;1.70;99.90
23609;DHT22;11982;50.810;4.442;2022-12-18T17:39:42;1.60;99.90
23609;DHT22;11982;50.810;4.442;2022-12-18T17:42:08;1.70;99.90
23609;DHT22;11982;50.810;4.442;2022-12-18T17:44:36;1.70;99.90
23609;DHT22;11982;50.810;4.442;2022-12-18T17:47:02;1.70;99.90
23609;DHT22;11982;50.810;4.442;2022-12-18T17:49:28;1.60;99.90